createdAt,value
2017-08-11T00:01:21.501Z,4.43
2017-08-11T00:03:47.769Z,3.80
2017-08-11T00:06:14.048Z,4.27
2017-08-11T00:08:41.037Z,4.00
2017-08-11T00:11:07.306Z,4.40
2017-08-11T00:13:33.597Z,4.77
2017-08-11T00:15:59.836Z,4.40
2017-08-11T00:18:26.068Z,4.87
2017-08-11T00:20:52.405Z,4.13
2017-08-11T00:23:18.669Z,4.10
2017-08-11T00:25:44.930Z,4.43
2017-08-11T00:28:11.199Z,3.93
2017-08-11T00:30:37.457Z,4.10
2017-08-11T00:33:03.731Z,4.43
2017-08-11T00:35:30.806Z,3.60
2017-08-11T00:37:57.830Z,3.80
2017-08-11T00:40:24.902Z,6.33
2017-08-11T00:42:51.933Z,4.60
2017-08-11T00:45:25.075Z,5.00
2017-08-11T00:47:51.346Z,3.90
2017-08-11T00:50:17.605Z,4.10
2017-08-11T00:52:44.653Z,4.37
2017-08-11T00:57:45.673Z,4.60
2017-08-11T01:00:11.926Z,3.87
2017-08-11T01:02:38.212Z,3.90
2017-08-11T01:05:05.312Z,4.30
2017-08-11T01:07:31.599Z,5.30
2017-08-11T01:09:58.580Z,4.10
2017-08-11T01:12:24.865Z,4.07
2017-08-11T01:14:51.124Z,4.60
2017-08-11T01:17:18.130Z,4.70
2017-08-11T01:19:44.435Z,4.10
2017-08-11T01:22:10.694Z,4.50
2017-08-11T01:24:36.965Z,4.03
2017-08-11T01:27:03.230Z,4.60
2017-08-11T01:29:30.215Z,4.63
2017-08-11T01:32:03.568Z,5.03
2017-08-11T01:34:29.896Z,5.53
2017-08-11T01:36:56.169Z,4.20
2017-08-11T01:39:22.526Z,4.80
2017-08-11T01:41:48.793Z,4.07
2017-08-11T01:44:15.058Z,3.80
2017-08-11T01:46:42.088Z,4.20
2017-08-11T01:49:09.075Z,4.27
2017-08-11T01:51:35.391Z,4.03
2017-08-11T01:54:02.385Z,5.33
2017-08-11T01:56:39.420Z,4.40
2017-08-11T01:59:06.709Z,4.43
2017-08-11T02:01:32.961Z,3.80
2017-08-11T02:03:59.231Z,5.03
2017-08-11T02:06:25.504Z,4.23
2017-08-11T02:08:51.772Z,4.67
2017-08-11T02:11:18.036Z,4.30
2017-08-11T02:13:44.392Z,4.47
2017-08-11T02:16:10.661Z,4.67
2017-08-11T02:18:36.922Z,4.80
2017-08-11T02:21:04.046Z,4.70
2017-08-11T02:23:30.334Z,4.33
2017-08-11T02:25:57.358Z,4.17
2017-08-11T02:28:24.484Z,4.57
2017-08-11T02:30:50.750Z,4.00
2017-08-11T02:33:17.136Z,4.60
2017-08-11T02:35:44.142Z,4.93
2017-08-11T02:38:10.407Z,4.63
2017-08-11T02:40:36.691Z,4.17
2017-08-11T02:43:04.050Z,3.90
2017-08-11T02:45:30.323Z,5.33
2017-08-11T02:47:56.575Z,4.00
2017-08-11T02:50:23.723Z,5.30
2017-08-11T02:55:23.118Z,4.70
2017-08-11T02:57:51.379Z,3.90
2017-08-11T03:00:17.630Z,3.93
2017-08-11T03:02:43.930Z,4.40
2017-08-11T03:05:10.921Z,4.47
2017-08-11T03:07:37.163Z,3.87
2017-08-11T03:10:03.448Z,4.53
2017-08-11T03:12:29.695Z,4.10
2017-08-11T03:14:55.970Z,3.97
2017-08-11T03:17:22.256Z,4.60
2017-08-11T03:19:49.259Z,4.60
2017-08-11T03:22:15.539Z,5.70
2017-08-11T03:24:49.565Z,3.63
2017-08-11T03:27:15.870Z,5.07
2017-08-11T03:29:42.879Z,4.50
2017-08-11T03:32:09.171Z,4.97
2017-08-11T03:34:36.166Z,4.60
2017-08-11T03:37:02.427Z,4.87
2017-08-11T03:39:29.538Z,4.43
2017-08-11T03:41:55.797Z,5.10
2017-08-11T03:44:22.071Z,3.57
2017-08-11T03:46:50.002Z,5.80
2017-08-11T03:49:16.261Z,3.80
2017-08-11T03:51:42.546Z,4.37
2017-08-11T03:54:08.822Z,4.20
2017-08-11T03:56:35.192Z,4.27
2017-08-11T03:59:03.079Z,3.87
2017-08-11T04:01:30.096Z,3.93
2017-08-11T04:03:56.399Z,4.60
2017-08-11T04:06:22.664Z,4.23
2017-08-11T04:08:49.367Z,5.50
2017-08-11T04:11:15.622Z,3.77
2017-08-11T04:13:41.918Z,4.23
2017-08-11T04:16:08.971Z,4.33
2017-08-11T04:18:35.958Z,5.03
2017-08-11T04:21:02.232Z,4.30
2017-08-11T04:23:28.497Z,3.97
2017-08-11T04:25:54.757Z,4.20
2017-08-11T04:28:21.019Z,4.90
2017-08-11T04:30:47.636Z,4.30
2017-08-11T04:33:13.923Z,4.80
2017-08-11T04:35:40.175Z,4.40
2017-08-11T04:38:13.592Z,4.50
2017-08-11T04:40:39.883Z,5.20
2017-08-11T04:43:06.173Z,4.80
2017-08-11T04:45:32.518Z,4.30
2017-08-11T04:47:58.826Z,4.07
2017-08-11T04:50:25.838Z,4.50
2017-08-11T04:52:54.321Z,4.50
2017-08-11T04:55:20.620Z,4.43
2017-08-11T04:57:46.892Z,4.33
2017-08-11T05:00:18.805Z,4.20
2017-08-11T05:02:45.067Z,3.80
2017-08-11T05:05:11.313Z,4.67
2017-08-11T05:07:37.616Z,3.90
2017-08-11T05:10:04.608Z,4.50
2017-08-11T05:12:30.852Z,5.87
2017-08-11T05:14:58.886Z,4.10
2017-08-11T05:17:25.153Z,4.60
2017-08-11T05:19:51.600Z,4.60
2017-08-11T05:22:17.866Z,5.20
2017-08-11T05:24:44.179Z,3.80
2017-08-11T05:27:10.451Z,4.40
2017-08-11T05:29:43.873Z,4.83
2017-08-11T05:32:10.121Z,5.20
2017-08-11T05:34:36.410Z,6.40
2017-08-11T05:37:04.404Z,4.90
2017-08-11T05:39:30.694Z,5.23
2017-08-11T05:41:56.999Z,5.23
2017-08-11T05:44:23.287Z,6.33
2017-08-11T05:46:49.554Z,4.30
2017-08-11T05:49:15.807Z,5.90
2017-08-11T05:51:49.895Z,4.30
2017-08-11T05:54:16.880Z,5.03
2017-08-11T05:56:43.140Z,5.37
2017-08-11T05:59:10.744Z,5.00
2017-08-11T06:01:40.242Z,5.13
2017-08-11T06:04:06.550Z,5.03
2017-08-11T06:06:33.634Z,5.57
2017-08-11T06:08:59.925Z,5.27
2017-08-11T06:11:26.171Z,5.13
2017-08-11T06:13:53.279Z,5.63
2017-08-11T06:16:19.546Z,5.10
2017-08-11T06:18:45.790Z,6.40
2017-08-11T06:21:12.906Z,4.90
2017-08-11T06:23:39.164Z,6.30
2017-08-11T06:26:08.826Z,5.93
2017-08-11T06:28:35.875Z,5.93
2017-08-11T06:31:02.139Z,5.63
2017-08-11T06:33:28.374Z,6.50
2017-08-11T06:35:55.374Z,5.70
2017-08-11T06:38:21.636Z,6.17
2017-08-11T06:40:48.634Z,5.83
2017-08-11T06:43:16.003Z,6.20
2017-08-11T06:45:42.280Z,5.80
2017-08-11T06:48:09.299Z,7.40
2017-08-11T06:50:36.353Z,5.57
2017-08-11T06:53:02.599Z,6.47
2017-08-11T06:55:28.834Z,5.87
2017-08-11T06:57:55.942Z,5.40
2017-08-11T07:00:22.915Z,7.00
2017-08-11T07:02:49.843Z,6.23
2017-08-11T07:05:16.170Z,5.87
2017-08-11T07:07:42.463Z,6.50
2017-08-11T07:10:09.475Z,6.47
2017-08-11T07:12:35.780Z,7.50
2017-08-11T07:15:02.829Z,6.97
2017-08-11T07:17:29.806Z,6.63
2017-08-11T07:19:57.674Z,6.50
2017-08-11T07:22:23.942Z,6.53
2017-08-11T07:24:50.187Z,6.80
2017-08-11T07:27:18.118Z,7.50
2017-08-11T07:29:44.369Z,7.00
2017-08-11T07:32:10.674Z,8.60
2017-08-11T07:34:37.706Z,7.30
2017-08-11T07:37:04.711Z,9.47
2017-08-11T07:39:30.959Z,8.77
2017-08-11T07:41:57.248Z,7.43
2017-08-11T07:44:24.246Z,7.30
2017-08-11T07:46:50.479Z,8.13
2017-08-11T07:49:17.919Z,7.20
2017-08-11T07:51:51.131Z,8.10
2017-08-11T07:54:17.375Z,7.37
2017-08-11T07:56:43.632Z,8.23
2017-08-11T07:59:10.652Z,7.73
2017-08-11T08:01:36.938Z,7.90
2017-08-11T08:04:03.283Z,7.13
2017-08-11T08:06:29.511Z,8.17
2017-08-11T08:08:56.566Z,7.57
2017-08-11T08:11:23.555Z,7.97
2017-08-11T08:13:49.810Z,6.93
2017-08-11T08:16:16.176Z,7.57
2017-08-11T08:18:42.423Z,7.27
2017-08-11T08:21:09.460Z,7.87
2017-08-11T08:23:36.490Z,9.47
2017-08-11T08:26:02.743Z,8.63
2017-08-11T08:28:28.993Z,9.13
2017-08-11T08:30:55.290Z,8.00
2017-08-11T08:33:21.594Z,8.60
2017-08-11T08:35:48.586Z,9.13
2017-08-11T08:38:14.934Z,8.80
2017-08-11T08:40:41.584Z,8.73
2017-08-11T08:43:07.838Z,8.87
2017-08-11T08:45:34.085Z,8.10
2017-08-11T08:48:01.078Z,8.20
2017-08-11T08:50:27.501Z,7.70
2017-08-11T08:52:54.653Z,9.60
2017-08-11T08:55:20.895Z,10.97
2017-08-11T08:57:47.134Z,9.30
2017-08-11T09:00:13.395Z,8.53
2017-08-11T09:02:39.679Z,8.80
2017-08-11T09:05:06.049Z,9.30
2017-08-11T09:07:32.456Z,9.40
2017-08-11T09:09:58.758Z,9.47
2017-08-11T09:12:25.034Z,9.10
2017-08-11T09:17:24.243Z,9.30
2017-08-11T09:19:51.230Z,10.73
2017-08-11T09:22:17.621Z,10.67
2017-08-11T09:24:57.019Z,9.80
2017-08-11T09:27:35.743Z,10.57
2017-08-11T09:30:23.042Z,10.10
2017-08-11T09:33:01.726Z,10.90
2017-08-11T09:35:51.424Z,11.03
2017-08-11T09:38:17.663Z,10.60
2017-08-11T09:40:44.003Z,11.87
2017-08-11T09:43:10.286Z,10.80
2017-08-11T09:45:37.438Z,10.20
2017-08-11T09:48:04.485Z,9.50
2017-08-11T09:50:30.775Z,10.80
2017-08-11T09:52:57.125Z,9.80
2017-08-11T09:55:23.420Z,10.33
2017-08-11T09:57:49.819Z,9.90
2017-08-11T10:00:16.070Z,11.93
2017-08-11T10:02:42.313Z,10.00
2017-08-11T10:05:10.520Z,9.87
2017-08-11T10:07:36.750Z,10.37
2017-08-11T10:10:03.001Z,9.20
2017-08-11T10:12:29.366Z,8.47
2017-08-11T10:14:55.590Z,8.10
2017-08-11T10:17:21.846Z,8.53
2017-08-11T10:19:48.930Z,8.97
2017-08-11T10:22:15.973Z,10.33
2017-08-11T10:24:42.290Z,9.40
2017-08-11T10:27:08.565Z,9.63
2017-08-11T10:29:34.821Z,10.07
2017-08-11T10:32:01.058Z,8.77
2017-08-11T10:34:27.387Z,10.37
2017-08-11T10:36:53.636Z,10.90
2017-08-11T10:39:19.878Z,10.70
2017-08-11T10:41:54.093Z,11.40
2017-08-11T10:44:20.334Z,9.53
2017-08-11T10:46:46.559Z,7.20
2017-08-11T10:49:12.838Z,6.27
2017-08-11T10:51:39.086Z,6.90
2017-08-11T10:54:06.178Z,7.20
2017-08-11T10:56:32.522Z,7.70
2017-08-11T10:58:59.580Z,6.73
2017-08-11T11:01:25.858Z,7.33
2017-08-11T11:03:52.743Z,7.43
2017-08-11T11:06:20.961Z,6.37
2017-08-11T11:08:47.309Z,6.40
2017-08-11T11:11:13.606Z,7.87
2017-08-11T11:13:39.875Z,7.50
2017-08-11T11:16:06.949Z,6.70
2017-08-11T11:18:33.995Z,8.00
2017-08-11T11:21:01.062Z,6.80
2017-08-11T11:23:27.327Z,8.00
2017-08-11T11:25:53.700Z,6.93
2017-08-11T11:28:20.001Z,7.20
2017-08-11T11:30:46.263Z,7.67
2017-08-11T11:33:12.560Z,7.63
2017-08-11T11:35:38.859Z,7.10
2017-08-11T11:38:05.874Z,8.33
2017-08-11T11:40:32.256Z,6.60
2017-08-11T11:42:58.522Z,6.97
2017-08-11T11:45:24.838Z,8.30
2017-08-11T11:47:51.707Z,9.33
2017-08-11T11:50:18.082Z,9.03
2017-08-11T11:52:44.414Z,9.03
2017-08-11T11:55:10.758Z,8.50
2017-08-11T11:57:37.059Z,7.17
2017-08-11T12:00:03.952Z,7.77
2017-08-11T12:02:30.299Z,8.10
2017-08-11T12:04:56.652Z,7.23
2017-08-11T12:07:24.963Z,7.80
2017-08-11T12:09:52.271Z,7.00
2017-08-11T12:15:50.835Z,6.93
2017-08-11T12:18:17.239Z,7.03
2017-08-11T12:20:50.277Z,8.30
2017-08-11T12:23:22.147Z,7.23
2017-08-11T12:25:49.192Z,7.53
2017-08-11T12:28:15.837Z,6.30
2017-08-11T12:30:42.098Z,6.67
2017-08-11T12:33:09.103Z,10.40
2017-08-11T12:35:35.390Z,9.13
2017-08-11T12:38:02.382Z,7.30
2017-08-11T12:40:28.681Z,6.33
2017-08-11T12:42:55.673Z,7.37
2017-08-11T12:45:21.948Z,7.97
2017-08-11T12:47:48.511Z,7.63
2017-08-11T12:50:14.774Z,7.70
2017-08-11T12:52:41.031Z,6.87
2017-08-11T12:55:08.094Z,5.87
2017-08-11T12:57:34.331Z,6.90
2017-08-11T13:00:00.575Z,7.87
2017-08-11T13:02:26.844Z,8.23
2017-08-11T13:04:53.094Z,8.17
2017-08-11T13:07:19.342Z,8.00
2017-08-11T13:09:56.602Z,7.73
2017-08-11T13:12:22.906Z,6.67
2017-08-11T13:14:49.142Z,5.80
2017-08-11T13:17:15.526Z,6.60
2017-08-11T13:19:41.793Z,7.07
2017-08-11T13:22:08.080Z,7.10
2017-08-11T13:24:34.459Z,7.13
2017-08-11T13:27:00.704Z,10.00
2017-08-11T13:29:26.971Z,8.10
2017-08-11T13:31:54.296Z,7.53
2017-08-11T13:34:20.559Z,13.23
2017-08-11T13:36:46.802Z,7.37
2017-08-11T13:39:13.876Z,6.23
2017-08-11T13:41:40.135Z,6.30
2017-08-11T13:44:06.383Z,7.17
2017-08-11T13:46:32.663Z,6.60
2017-08-11T13:48:58.951Z,6.40
2017-08-11T13:51:25.186Z,6.80
2017-08-11T13:53:51.492Z,7.03
2017-08-11T13:56:17.736Z,6.47
2017-08-11T13:58:44.007Z,5.93
2017-08-11T14:01:10.284Z,7.60
2017-08-11T14:03:37.239Z,7.20
2017-08-11T14:06:04.210Z,6.30
2017-08-11T14:08:30.500Z,6.40
2017-08-11T14:10:57.571Z,5.80
2017-08-11T14:13:24.550Z,6.10
2017-08-11T14:15:51.489Z,6.13
2017-08-11T14:18:17.750Z,4.70
2017-08-11T14:20:44.003Z,5.37
2017-08-11T14:23:16.658Z,5.20
2017-08-11T14:25:42.911Z,6.03
2017-08-11T14:28:09.148Z,5.17
2017-08-11T14:30:35.560Z,3.97
2017-08-11T14:33:01.855Z,5.27
2017-08-11T14:35:28.079Z,4.30
2017-08-11T14:37:55.175Z,5.03
2017-08-11T14:40:21.415Z,5.30
2017-08-11T14:42:47.682Z,5.23
2017-08-11T14:45:21.121Z,5.70
2017-08-11T14:47:48.145Z,5.50
2017-08-11T14:50:14.394Z,6.60
2017-08-11T14:52:41.465Z,5.23
2017-08-11T14:55:08.459Z,13.60
2017-08-11T14:57:34.706Z,7.53
2017-08-11T15:00:01.214Z,9.40
2017-08-11T15:02:27.467Z,7.20
2017-08-11T15:04:53.715Z,7.90
2017-08-11T15:07:19.991Z,6.77
2017-08-11T15:09:46.266Z,7.03
2017-08-11T15:12:13.522Z,7.00
2017-08-11T15:14:39.779Z,7.80
2017-08-11T15:17:06.055Z,13.47
2017-08-11T15:19:33.063Z,8.80
2017-08-11T15:22:00.375Z,7.43
2017-08-11T15:24:26.668Z,6.80
2017-08-11T15:26:52.998Z,7.60
2017-08-11T15:29:19.352Z,7.70
2017-08-11T15:31:45.595Z,7.33
2017-08-11T15:34:12.603Z,7.53
2017-08-11T15:36:38.872Z,9.30
2017-08-11T15:39:05.131Z,8.90
2017-08-11T15:41:31.386Z,10.40
2017-08-11T15:43:57.719Z,8.73
2017-08-11T15:46:24.003Z,11.67
2017-08-11T15:48:50.278Z,8.03
2017-08-11T15:51:16.546Z,7.23
2017-08-11T15:53:42.818Z,8.00
2017-08-11T15:56:09.111Z,8.10
2017-08-11T15:58:35.463Z,8.50
2017-08-11T16:01:01.723Z,8.93
2017-08-11T16:03:27.994Z,9.07
2017-08-11T16:05:55.319Z,9.27
2017-08-11T16:08:21.589Z,9.37
2017-08-11T16:10:48.610Z,9.17
2017-08-11T16:13:15.841Z,7.67
2017-08-11T16:15:42.098Z,9.00
2017-08-11T16:18:08.457Z,9.17
2017-08-11T16:20:34.748Z,19.90
2017-08-11T16:23:01.005Z,14.13
2017-08-11T16:25:27.298Z,11.70
2017-08-11T16:27:54.449Z,10.43
2017-08-11T16:30:20.702Z,10.73
2017-08-11T16:32:46.936Z,8.23
2017-08-11T16:35:13.403Z,10.20
2017-08-11T16:37:39.662Z,10.20
2017-08-11T16:40:05.918Z,10.10
2017-08-11T16:42:32.256Z,10.00
2017-08-11T16:44:59.231Z,11.13
2017-08-11T16:47:25.477Z,10.70
2017-08-11T16:49:53.330Z,12.07
2017-08-11T16:52:19.575Z,11.03
2017-08-11T16:54:45.911Z,9.47
2017-08-11T16:57:12.252Z,11.07
2017-08-11T16:59:38.514Z,8.73
2017-08-11T17:02:04.735Z,9.17
2017-08-11T17:04:31.126Z,8.90
2017-08-11T17:06:57.355Z,9.37
2017-08-11T17:09:24.374Z,7.63
2017-08-11T17:11:50.978Z,8.20
2017-08-11T17:14:17.922Z,7.40
2017-08-11T17:16:44.947Z,8.60
2017-08-11T17:19:11.202Z,9.20
2017-08-11T17:21:38.202Z,6.33
2017-08-11T17:24:11.211Z,7.13
2017-08-11T17:26:37.472Z,9.03
2017-08-11T17:29:03.749Z,9.20
2017-08-11T17:31:30.040Z,10.17
2017-08-11T17:33:57.048Z,7.80
2017-08-11T17:36:23.270Z,7.57
2017-08-11T17:38:49.527Z,7.00
2017-08-11T17:41:15.775Z,9.00
2017-08-11T17:43:42.033Z,8.30
2017-08-11T17:46:09.085Z,8.30
2017-08-11T17:48:35.322Z,25.37
2017-08-11T17:51:01.566Z,8.87
2017-08-11T17:53:29.051Z,8.00
2017-08-11T17:55:55.280Z,7.93
2017-08-11T17:58:21.501Z,8.27
2017-08-11T18:00:47.762Z,8.63
2017-08-11T18:03:14.098Z,26.10
2017-08-11T18:05:40.351Z,39.13
2017-08-11T18:08:06.610Z,40.43
2017-08-11T18:10:33.674Z,11.70
2017-08-11T18:13:00.688Z,11.00
2017-08-11T18:15:28.854Z,11.10
2017-08-11T18:17:55.101Z,10.93
2017-08-11T18:20:21.359Z,9.70
2017-08-11T18:22:47.622Z,39.87
2017-08-11T18:25:14.040Z,11.20
2017-08-11T18:27:40.308Z,10.50
2017-08-11T18:30:06.570Z,9.63
2017-08-11T18:32:32.798Z,10.13
2017-08-11T18:34:59.030Z,10.00
2017-08-11T18:37:25.290Z,10.07
2017-08-11T18:39:51.554Z,10.33
2017-08-11T18:42:17.839Z,11.30
2017-08-11T18:44:44.189Z,11.77
2017-08-11T18:47:10.455Z,10.77
2017-08-11T18:49:36.794Z,9.27
2017-08-11T18:52:03.055Z,9.90
2017-08-11T18:54:30.062Z,10.90
2017-08-11T18:56:56.315Z,9.50
2017-08-11T18:59:23.423Z,8.57
2017-08-11T19:01:49.697Z,8.73
2017-08-11T19:04:16.031Z,9.40
2017-08-11T19:06:42.447Z,10.10
2017-08-11T19:09:08.722Z,9.37
2017-08-11T19:11:34.992Z,9.40
2017-08-11T19:14:01.327Z,8.47
2017-08-11T19:16:29.187Z,8.07
2017-08-11T19:18:55.480Z,8.20
2017-08-11T19:21:21.803Z,7.60
2017-08-11T19:23:48.114Z,9.40
2017-08-11T19:26:14.422Z,11.10
2017-08-11T19:28:40.735Z,10.93
2017-08-11T19:31:07.086Z,10.57
2017-08-11T19:33:33.367Z,10.50
2017-08-11T19:35:59.640Z,8.97
2017-08-11T19:38:25.907Z,10.53
2017-08-11T19:40:53.470Z,14.10
2017-08-11T19:43:20.087Z,12.17
2017-08-11T19:45:46.374Z,11.50
2017-08-11T19:48:13.365Z,13.00
2017-08-11T19:50:39.638Z,12.10
2017-08-11T19:53:05.907Z,13.50
2017-08-11T19:55:32.138Z,20.60
2017-08-11T19:57:58.398Z,16.10
2017-08-11T20:00:24.671Z,21.60
2017-08-11T20:02:50.952Z,13.43
2017-08-11T20:05:17.295Z,13.33
2017-08-11T20:07:43.583Z,13.03
2017-08-11T20:10:09.834Z,12.67
2017-08-11T20:12:36.133Z,12.43
2017-08-11T20:15:02.387Z,12.20
2017-08-11T20:17:29.554Z,12.60
2017-08-11T20:19:55.828Z,11.60
2017-08-11T20:22:22.106Z,11.87
2017-08-11T20:24:48.350Z,11.80
2017-08-11T20:27:14.763Z,10.63
2017-08-11T20:29:41.010Z,10.77
2017-08-11T20:32:07.243Z,12.80
2017-08-11T20:34:33.533Z,10.30
2017-08-11T20:36:59.787Z,10.60
2017-08-11T20:39:26.060Z,8.60
2017-08-11T20:41:52.345Z,8.60
2017-08-11T20:44:18.596Z,9.33
2017-08-11T20:46:44.866Z,9.10
2017-08-11T20:49:11.754Z,10.33
2017-08-11T20:51:38.762Z,9.83
2017-08-11T20:54:05.032Z,9.53
2017-08-11T20:56:31.296Z,8.57
2017-08-11T20:58:57.538Z,7.07
2017-08-11T21:01:23.807Z,8.23
2017-08-11T21:03:50.092Z,8.03
2017-08-11T21:06:16.327Z,6.80
2017-08-11T21:08:42.651Z,6.53
2017-08-11T21:11:08.966Z,19.83
2017-08-11T21:13:35.947Z,17.20
2017-08-11T21:16:02.222Z,7.73
2017-08-11T21:18:28.626Z,8.27
2017-08-11T21:20:54.886Z,7.63
2017-08-11T21:23:21.132Z,9.30
2017-08-11T21:25:47.394Z,7.90
2017-08-11T21:28:14.398Z,6.43
2017-08-11T21:30:40.631Z,6.40
2017-08-11T21:33:06.942Z,7.60
2017-08-11T21:35:33.190Z,6.93
2017-08-11T21:37:59.430Z,7.50
2017-08-11T21:40:25.687Z,7.63
2017-08-11T21:42:51.963Z,6.73
2017-08-11T21:45:18.956Z,5.87
2017-08-11T21:47:45.319Z,7.73
2017-08-11T21:50:11.594Z,6.60
2017-08-11T21:52:38.587Z,6.97
2017-08-11T21:55:04.899Z,5.70
2017-08-11T21:57:31.146Z,6.47
2017-08-11T21:59:57.426Z,7.13
2017-08-11T22:02:24.465Z,6.50
2017-08-11T22:04:50.728Z,6.80
2017-08-11T22:07:17.720Z,5.63
2017-08-11T22:09:44.009Z,6.67
2017-08-11T22:12:10.279Z,7.80
2017-08-11T22:14:36.527Z,19.27
2017-08-11T22:17:03.360Z,13.90
2017-08-11T22:19:31.027Z,17.47
2017-08-11T22:21:57.262Z,8.00
2017-08-11T22:24:23.523Z,7.10
2017-08-11T22:26:49.788Z,6.23
2017-08-11T22:29:16.032Z,6.20
2017-08-11T22:31:42.436Z,6.93
2017-08-11T22:34:08.697Z,6.10
2017-08-11T22:36:34.939Z,6.43
2017-08-11T22:39:01.831Z,5.93
2017-08-11T22:41:28.087Z,7.50
2017-08-11T22:44:02.095Z,6.53
2017-08-11T22:46:28.342Z,6.53
2017-08-11T22:48:54.585Z,6.20
2017-08-11T22:51:20.958Z,6.10
2017-08-11T22:53:47.211Z,6.60
2017-08-11T22:56:13.466Z,5.83
2017-08-11T22:58:40.506Z,6.00
2017-08-11T23:01:06.739Z,6.20
2017-08-11T23:03:33.002Z,5.23
2017-08-11T23:05:59.275Z,6.47
2017-08-11T23:08:25.522Z,5.73
2017-08-11T23:10:52.515Z,6.10
2017-08-11T23:13:18.814Z,6.30
2017-08-11T23:15:45.840Z,5.80
2017-08-11T23:18:12.090Z,5.90
2017-08-11T23:20:51.861Z,5.30
2017-08-11T23:23:18.118Z,4.70
2017-08-11T23:25:44.392Z,5.00
2017-08-11T23:28:10.687Z,5.43
2017-08-11T23:30:36.935Z,5.10
2017-08-11T23:33:03.190Z,6.20
2017-08-11T23:35:29.454Z,5.00
2017-08-11T23:37:56.442Z,4.27
2017-08-11T23:40:22.715Z,3.80
2017-08-11T23:42:49.771Z,5.07
2017-08-11T23:45:16.783Z,4.50
2017-08-11T23:47:43.018Z,5.87
2017-08-11T23:50:09.379Z,13.60
2017-08-11T23:52:35.653Z,19.90
2017-08-11T23:55:02.692Z,6.60
2017-08-11T23:57:29.027Z,4.50
2017-08-11T23:59:55.303Z,4.33
